Time;durP1;ratioP1;P1;durP2;ratioP2;P2;SDS_P1;SDS_P2;PMS_P1;PMS_P2;Temp;Humidity;BMP_temperature;BMP_pressure;BME280_temperature;BME280_humidity;BME280_pressure;Samples;Min_cycle;Max_cycle;Signal;HPM_P1;HPM_P2
2023/12/10 00:01:28;;;;;;;13.15;2.25;;;9.60;99.90;;;;;;5013071;28;20041;-78
2023/12/10 00:03:55;;;;;;;16.48;2.95;;;9.60;99.90;;;;;;5012829;28;20524;-78
2023/12/10 00:06:22;;;;;;;18.80;3.15;;;9.50;99.90;;;;;;5016677;28;20100;-77
2023/12/10 00:08:49;;;;;;;14.82;3.08;;;9.50;99.90;;;;;;5011752;28;20069;-78
2023/12/10 00:11:16;;;;;;;18.13;2.75;;;9.50;99.90;;;;;;5013943;28;20074;-77
2023/12/10 00:13:43;;;;;;;20.52;2.47;;;9.50;99.90;;;;;;5010176;28;20042;-77
2023/12/10 00:16:12;;;;;;;19.35;3.78;;;9.50;99.90;;;;;;5010981;28;20053;-78
2023/12/10 00:18:39;;;;;;;19.17;3.63;;;9.50;99.90;;;;;;5009805;28;20509;-77
2023/12/10 00:21:06;;;;;;;15.07;3.10;;;9.50;99.90;;;;;;5001517;28;20054;-78
2023/12/10 00:23:33;;;;;;;14.30;3.17;;;9.50;99.90;;;;;;5012893;28;20050;-77
2023/12/10 00:26:00;;;;;;;14.57;3.08;;;9.40;99.90;;;;;;5014311;28;20099;-77
2023/12/10 00:28:26;;;;;;;20.63;3.55;;;9.40;99.90;;;;;;5012249;28;20045;-77
2023/12/10 00:30:53;;;;;;;25.33;3.90;;;9.50;99.90;;;;;;5014176;28;20050;-78
2023/12/10 00:33:20;;;;;;;20.00;3.03;;;9.50;99.90;;;;;;5009192;28;20092;-77
2023/12/10 00:35:47;;;;;;;15.27;2.90;;;9.50;99.90;;;;;;4995222;28;20058;-77
2023/12/10 00:38:14;;;;;;;17.40;2.67;;;9.50;99.90;;;;;;5008748;28;20101;-77
2023/12/10 00:40:40;;;;;;;16.52;2.90;;;9.40;99.90;;;;;;5014157;28;20046;-77
2023/12/10 00:43:07;;;;;;;20.27;2.60;;;9.40;99.90;;;;;;5010512;28;20193;-77
2023/12/10 00:45:34;;;;;;;14.85;3.10;;;9.40;99.90;;;;;;4995930;28;20046;-77
2023/12/10 00:48:01;;;;;;;20.15;3.05;;;9.40;99.90;;;;;;5011371;28;20050;-77
2023/12/10 00:50:28;;;;;;;14.77;3.05;;;9.40;99.90;;;;;;5011756;28;20041;-77
2023/12/10 00:52:54;;;;;;;15.45;3.70;;;9.40;99.90;;;;;;5012173;28;20536;-77
2023/12/10 00:55:21;;;;;;;23.15;4.25;;;9.30;99.90;;;;;;5013774;28;20054;-77
2023/12/10 00:57:48;;;;;;;13.55;2.92;;;9.30;99.90;;;;;;5020220;28;20042;-78
2023/12/10 01:00:16;;;;;;;20.73;3.25;;;9.30;99.90;;;;;;4994779;28;20062;-78
2023/12/10 01:02:42;;;;;;;22.55;4.00;;;9.30;99.90;;;;;;5016750;28;20050;-78
2023/12/10 01:05:09;;;;;;;18.15;3.55;;;9.20;99.90;;;;;;5010159;28;20042;-77
2023/12/10 01:07:36;;;;;;;20.27;3.88;;;9.20;99.90;;;;;;5020448;28;20046;-77
2023/12/10 01:10:05;;;;;;;13.95;3.67;;;9.20;99.90;;;;;;5007834;28;20046;-76
2023/12/10 01:12:37;;;;;;;33.20;3.65;;;9.20;99.90;;;;;;5002557;28;20472;-77
2023/12/10 01:15:11;;;;;;;28.67;4.13;;;9.20;99.90;;;;;;4996455;28;20050;-77
2023/12/10 01:17:37;;;;;;;24.75;4.20;;;9.20;99.90;;;;;;5019514;28;20038;-78
2023/12/10 01:20:05;;;;;;;25.77;3.75;;;9.20;99.90;;;;;;5001872;28;20053;-77
2023/12/10 01:22:32;;;;;;;24.58;5.03;;;9.20;99.90;;;;;;5015731;28;20046;-77
2023/12/10 01:24:58;;;;;;;23.58;4.60;;;9.20;99.90;;;;;;5001272;28;20046;-78
2023/12/10 01:27:25;;;;;;;29.52;4.45;;;9.20;99.90;;;;;;5014187;28;20049;-77
2023/12/10 01:29:52;;;;;;;26.80;4.05;;;9.20;99.90;;;;;;5017310;28;20038;-78
2023/12/10 01:32:20;;;;;;;21.95;4.88;;;9.20;99.90;;;;;;5011533;28;20043;-78
2023/12/10 01:34:47;;;;;;;32.88;6.05;;;9.20;99.90;;;;;;4998991;28;20073;-76
2023/12/10 01:37:14;;;;;;;23.00;4.25;;;9.10;99.90;;;;;;5009697;28;20312;-77
2023/12/10 01:39:41;;;;;;;24.75;5.20;;;9.10;99.90;;;;;;5015332;28;20053;-77
2023/12/10 01:42:08;;;;;;;30.45;5.93;;;9.10;99.90;;;;;;5013101;28;20109;-77
2023/12/10 01:44:34;;;;;;;35.33;7.30;;;9.10;99.90;;;;;;5024471;28;20056;-77
2023/12/10 01:47:02;;;;;;;23.55;3.97;;;9.00;99.90;;;;;;4995417;28;20046;-77
2023/12/10 01:49:29;;;;;;;25.67;3.78;;;8.90;99.90;;;;;;5004543;28;20386;-77
2023/12/10 01:51:56;;;;;;;30.90;4.55;;;8.90;99.90;;;;;;5012449;28;20076;-77
2023/12/10 01:54:24;;;;;;;26.67;4.72;;;8.80;99.90;;;;;;5015804;28;20050;-77
2023/12/10 01:56:52;;;;;;;30.63;4.82;;;8.80;99.90;;;;;;5001025;28;20092;-77
2023/12/10 01:59:32;;;;;;;37.72;5.07;;;8.70;99.90;;;;;;5009616;28;20048;-77
2023/12/10 02:01:59;;;;;;;31.92;4.47;;;8.70;99.90;;;;;;5010893;28;20080;-77
2023/12/10 02:04:26;;;;;;;25.30;5.30;;;8.60;99.90;;;;;;4995040;28;20130;-77
2023/12/10 02:06:53;;;;;;;27.15;5.82;;;8.50;99.90;;;;;;4998352;28;20077;-77
2023/12/10 02:09:20;;;;;;;29.42;4.88;;;8.50;99.90;;;;;;5013242;28;20046;-77
2023/12/10 02:11:47;;;;;;;16.77;4.10;;;8.50;99.90;;;;;;5015976;28;20070;-77
2023/12/10 02:14:14;;;;;;;23.05;4.03;;;8.40;99.90;;;;;;5000135;28;20046;-77
2023/12/10 02:16:40;;;;;;;24.45;4.25;;;8.40;99.90;;;;;;5021413;28;20045;-75
2023/12/10 02:19:07;;;;;;;21.20;3.35;;;8.40;99.90;;;;;;5006709;28;20605;-77
2023/12/10 02:21:35;;;;;;;24.00;3.47;;;8.30;99.90;;;;;;5018206;28;20041;-77
2023/12/10 02:24:08;;;;;;;19.77;3.88;;;8.30;99.90;;;;;;5005091;28;20137;-78
2023/12/10 02:26:35;;;;;;;14.32;3.25;;;8.30;99.90;;;;;;4997201;28;20538;-77
2023/12/10 02:29:03;;;;;;;22.58;3.65;;;8.20;99.90;;;;;;5010706;28;20054;-77
2023/12/10 02:31:30;;;;;;;27.58;4.47;;;8.20;99.90;;;;;;5018872;28;20045;-77
2023/12/10 02:33:57;;;;;;;13.63;3.50;;;8.20;99.90;;;;;;5005652;28;20053;-77
2023/12/10 02:36:23;;;;;;;25.45;3.58;;;8.20;99.90;;;;;;5005441;28;20054;-77
2023/12/10 02:38:51;;;;;;;27.42;4.95;;;8.20;99.90;;;;;;5008992;28;20080;-77
2023/12/10 02:41:17;;;;;;;22.60;4.20;;;8.20;99.90;;;;;;5017161;28;20101;-77
2023/12/10 02:43:44;;;;;;;32.75;4.50;;;8.20;99.90;;;;;;5007932;28;20041;-78
2023/12/10 02:46:11;;;;;;;23.08;3.35;;;8.10;99.90;;;;;;5014187;28;20541;-77
2023/12/10 02:48:38;;;;;;;26.42;4.60;;;8.10;99.90;;;;;;5020205;28;20056;-77
2023/12/10 02:51:05;;;;;;;26.38;4.10;;;8.10;99.90;;;;;;5001389;28;20046;-77
2023/12/10 02:53:32;;;;;;;32.03;4.60;;;8.10;99.90;;;;;;5025056;28;20041;-77
2023/12/10 02:55:59;;;;;;;23.95;3.75;;;8.10;99.90;;;;;;5009750;28;20054;-77
2023/12/10 02:58:25;;;;;;;24.50;3.65;;;8.10;99.90;;;;;;5020347;28;20050;-77
2023/12/10 03:00:53;;;;;;;24.15;4.00;;;8.10;99.90;;;;;;5015218;28;20065;-78
2023/12/10 03:03:20;;;;;;;22.73;4.13;;;8.10;99.90;;;;;;5003569;28;20050;-77
2023/12/10 03:05:47;;;;;;;22.90;3.60;;;8.10;99.90;;;;;;5013606;28;20060;-78
2023/12/10 03:08:14;;;;;;;32.85;4.68;;;8.10;99.90;;;;;;5015058;28;20050;-78
2023/12/10 03:10:41;;;;;;;24.17;3.58;;;8.10;99.90;;;;;;5011155;28;20053;-77
2023/12/10 03:13:07;;;;;;;24.50;4.70;;;8.20;99.90;;;;;;5013274;28;20058;-78
2023/12/10 03:15:34;;;;;;;19.83;3.75;;;8.10;99.90;;;;;;5016554;28;20037;-77
2023/12/10 03:18:01;;;;;;;25.90;4.32;;;8.10;99.90;;;;;;5011206;28;20046;-77
2023/12/10 03:20:28;;;;;;;25.92;3.40;;;8.10;99.90;;;;;;5015012;28;20042;-78
2023/12/10 03:22:55;;;;;;;26.25;3.45;;;8.10;99.90;;;;;;5010355;28;20568;-77
2023/12/10 03:25:21;;;;;;;20.83;3.75;;;8.10;99.90;;;;;;5020447;28;20077;-77
2023/12/10 03:27:52;;;;;;;31.50;4.85;;;8.00;99.90;;;;;;5008194;28;20417;-77
2023/12/10 03:30:19;;;;;;;29.25;4.53;;;8.10;99.90;;;;;;5016607;28;20050;-77
2023/12/10 03:32:45;;;;;;;20.35;3.25;;;8.00;99.90;;;;;;5008495;28;20080;-77
2023/12/10 03:35:12;;;;;;;25.52;3.55;;;8.00;99.90;;;;;;5013463;28;20052;-76
2023/12/10 03:37:39;;;;;;;26.15;5.03;;;8.00;99.90;;;;;;5012321;28;20052;-77
2023/12/10 03:40:06;;;;;;;25.15;3.70;;;8.00;99.90;;;;;;5013813;28;20124;-76
2023/12/10 03:42:33;;;;;;;26.92;3.90;;;8.00;99.90;;;;;;5010780;28;20045;-77
2023/12/10 03:45:00;;;;;;;25.17;3.80;;;8.00;99.90;;;;;;4991475;28;20047;-77
2023/12/10 03:47:27;;;;;;;17.80;3.70;;;8.00;99.90;;;;;;5015265;28;20506;-76
2023/12/10 03:49:54;;;;;;;21.13;4.10;;;7.90;99.90;;;;;;5012952;28;20564;-77
2023/12/10 03:52:20;;;;;;;24.55;4.18;;;7.90;99.90;;;;;;5011460;28;20060;-76
2023/12/10 03:54:47;;;;;;;19.23;3.60;;;7.90;99.90;;;;;;5012210;28;20124;-76
2023/12/10 03:57:14;;;;;;;21.88;3.58;;;7.80;99.90;;;;;;5007414;28;20053;-77
2023/12/10 03:59:41;;;;;;;20.73;3.63;;;7.80;99.90;;;;;;5012113;28;20049;-79
2023/12/10 04:02:07;;;;;;;27.25;3.88;;;7.80;99.90;;;;;;5016447;28;20069;-77
2023/12/10 04:04:34;;;;;;;19.45;3.70;;;7.80;99.90;;;;;;5013273;28;20477;-76
2023/12/10 04:07:01;;;;;;;28.02;3.92;;;7.80;99.90;;;;;;5014983;28;20540;-76
2023/12/10 04:09:28;;;;;;;24.20;3.63;;;7.80;99.90;;;;;;5007866;28;20494;-76
2023/12/10 04:11:59;;;;;;;21.77;3.25;;;7.80;99.90;;;;;;5002500;28;20045;-75
2023/12/10 04:14:26;;;;;;;14.85;3.72;;;7.80;99.90;;;;;;5008036;28;20057;-77
2023/12/10 04:16:53;;;;;;;19.40;3.88;;;7.80;99.90;;;;;;5015963;28;20073;-77
2023/12/10 04:19:20;;;;;;;18.27;3.72;;;7.80;99.90;;;;;;5008461;28;20050;-77
2023/12/10 04:21:47;;;;;;;25.30;5.38;;;7.70;99.90;;;;;;5020139;28;20060;-76
2023/12/10 04:24:15;;;;;;;23.00;3.40;;;7.70;99.90;;;;;;5016137;28;20057;-77
2023/12/10 04:26:42;;;;;;;25.77;3.83;;;7.80;99.90;;;;;;5021515;28;20045;-77
2023/12/10 04:29:09;;;;;;;19.73;3.58;;;7.70;99.90;;;;;;5007605;28;20050;-77
2023/12/10 04:31:36;;;;;;;19.80;2.97;;;7.70;99.90;;;;;;5018066;28;20044;-77
2023/12/10 04:34:03;;;;;;;22.30;3.83;;;7.70;99.90;;;;;;5012449;28;20049;-77
2023/12/10 04:36:30;;;;;;;16.63;2.65;;;7.70;99.90;;;;;;5011150;28;20054;-78
2023/12/10 04:38:56;;;;;;;29.08;4.80;;;7.70;99.90;;;;;;5026182;28;20078;-78
2023/12/10 04:41:23;;;;;;;19.55;3.17;;;7.70;99.90;;;;;;5010283;28;20062;-78
2023/12/10 04:43:51;;;;;;;26.10;3.20;;;7.70;99.90;;;;;;5009832;28;20050;-78
2023/12/10 04:46:17;;;;;;;17.02;3.28;;;7.70;99.90;;;;;;5018315;28;20054;-78
2023/12/10 04:48:44;;;;;;;29.00;3.75;;;7.70;99.90;;;;;;5027383;28;20046;-78
2023/12/10 04:51:11;;;;;;;23.85;3.88;;;7.70;99.90;;;;;;5014009;28;20050;-78
2023/12/10 04:53:38;;;;;;;16.15;3.03;;;7.70;99.90;;;;;;5028101;28;20114;-79
2023/12/10 04:56:05;;;;;;;21.40;3.85;;;7.70;99.90;;;;;;5016178;28;20493;-79
2023/12/10 04:58:32;;;;;;;15.43;3.40;;;7.70;99.90;;;;;;5031594;28;20116;-78
2023/12/10 05:00:59;;;;;;;20.75;3.97;;;7.60;99.90;;;;;;5020732;28;20045;-79
2023/12/10 05:03:26;;;;;;;19.05;3.25;;;7.60;99.90;;;;;;5010147;28;20097;-78
2023/12/10 05:05:53;;;;;;;16.85;3.20;;;7.60;99.90;;;;;;5019021;28;20042;-78
2023/12/10 05:08:19;;;;;;;15.32;3.13;;;7.60;99.90;;;;;;5006413;28;20042;-79
2023/12/10 05:10:46;;;;;;;15.85;4.35;;;7.60;99.90;;;;;;5021002;28;20045;-78
2023/12/10 05:13:13;;;;;;;18.83;4.03;;;7.60;99.90;;;;;;5005972;28;20102;-79
2023/12/10 05:15:39;;;;;;;19.52;3.83;;;7.60;99.90;;;;;;5023416;28;20037;-78
2023/12/10 05:18:06;;;;;;;18.55;3.55;;;7.70;99.90;;;;;;5017325;28;20536;-79
2023/12/10 05:20:34;;;;;;;18.27;3.25;;;7.70;99.90;;;;;;5020970;28;20082;-79
2023/12/10 05:23:00;;;;;;;20.52;3.53;;;7.60;99.90;;;;;;5017245;28;20469;-78
2023/12/10 05:25:28;;;;;;;14.63;2.88;;;7.60;99.90;;;;;;5026064;28;20119;-78
2023/12/10 05:27:55;;;;;;;15.85;2.78;;;7.70;99.90;;;;;;5022007;28;20474;-78
2023/12/10 05:30:22;;;;;;;16.58;3.70;;;7.70;99.90;;;;;;5021718;28;20076;-78
2023/12/10 05:32:48;;;;;;;17.23;3.33;;;7.70;99.90;;;;;;5019136;28;20056;-78
2023/12/10 05:35:15;;;;;;;15.52;2.67;;;7.70;99.90;;;;;;5026407;28;20100;-79
2023/12/10 05:37:42;;;;;;;15.25;2.42;;;7.70;99.90;;;;;;5023322;28;20049;-79
2023/12/10 05:40:09;;;;;;;21.55;3.00;;;7.80;99.90;;;;;;5027538;28;20049;-79
2023/12/10 05:42:36;;;;;;;20.98;3.70;;;7.80;99.90;;;;;;5023747;28;20072;-80
2023/12/10 05:45:03;;;;;;;16.60;2.83;;;7.90;99.90;;;;;;5026493;28;20085;-80
2023/12/10 05:47:30;;;;;;;10.88;2.47;;;7.90;99.90;;;;;;5010570;28;20054;-79
2023/12/10 05:49:57;;;;;;;21.73;3.63;;;8.00;99.90;;;;;;5025784;28;20050;-79
2023/12/10 05:52:23;;;;;;;25.25;3.88;;;8.00;99.90;;;;;;5026316;28;20126;-79
2023/12/10 05:54:51;;;;;;;17.35;3.85;;;8.10;99.90;;;;;;5027112;28;20042;-79
2023/12/10 05:57:17;;;;;;;19.52;3.05;;;8.10;99.90;;;;;;5030159;28;20058;-80
2023/12/10 05:59:44;;;;;;;11.93;2.75;;;8.20;99.90;;;;;;5006989;28;20046;-79
2023/12/10 06:02:11;;;;;;;11.40;2.63;;;8.20;99.90;;;;;;5026802;28;20046;-79
2023/12/10 06:04:38;;;;;;;19.45;3.83;;;8.30;99.90;;;;;;5015941;28;20057;-79
2023/12/10 06:07:05;;;;;;;17.33;2.85;;;8.30;99.90;;;;;;5006540;28;20042;-79
2023/12/10 06:09:31;;;;;;;24.10;4.45;;;8.40;99.90;;;;;;5006385;28;20046;-79
2023/12/10 06:11:58;;;;;;;22.60;3.65;;;8.40;99.90;;;;;;5011658;28;20056;-79
2023/12/10 06:14:25;;;;;;;19.92;3.03;;;8.40;99.90;;;;;;5005112;28;20050;-80
2023/12/10 06:16:52;;;;;;;19.30;3.78;;;8.40;99.90;;;;;;5031348;28;20046;-79
2023/12/10 06:19:18;;;;;;;15.10;2.50;;;8.50;99.90;;;;;;5033546;28;20064;-79
2023/12/10 06:21:45;;;;;;;12.13;2.72;;;8.50;99.90;;;;;;5034429;28;20044;-78
2023/12/10 06:24:12;;;;;;;25.90;2.92;;;8.50;99.90;;;;;;5018026;28;20078;-78
2023/12/10 06:26:39;;;;;;;20.20;3.55;;;8.60;99.90;;;;;;5008219;28;20132;-79
2023/12/10 06:29:05;;;;;;;19.48;2.85;;;8.60;99.90;;;;;;5006388;28;20049;-79
2023/12/10 06:31:32;;;;;;;16.73;2.90;;;8.60;99.90;;;;;;5006707;28;20053;-78
2023/12/10 06:33:59;;;;;;;17.85;4.00;;;8.60;99.90;;;;;;5023069;28;20050;-78
2023/12/10 06:36:26;;;;;;;18.52;4.00;;;8.70;99.90;;;;;;5016232;28;20056;-79
2023/12/10 06:38:52;;;;;;;16.27;3.13;;;8.70;99.90;;;;;;5009293;28;20053;-78
2023/12/10 06:41:19;;;;;;;12.52;2.70;;;8.70;99.90;;;;;;5014221;28;20050;-78
2023/12/10 06:43:46;;;;;;;19.50;2.53;;;8.70;99.90;;;;;;5008368;28;20045;-79
2023/12/10 06:46:17;;;;;;;22.73;3.42;;;8.70;99.90;;;;;;5005332;28;20069;-77
2023/12/10 06:48:44;;;;;;;19.55;3.17;;;8.70;99.90;;;;;;5010743;28;20532;-79
2023/12/10 06:51:11;;;;;;;17.83;4.07;;;8.70;99.90;;;;;;5012620;28;20082;-79
2023/12/10 06:53:40;;;;;;;20.25;4.15;;;8.70;99.90;;;;;;5011785;28;20100;-80
2023/12/10 06:56:08;;;;;;;22.40;3.63;;;8.80;99.90;;;;;;5025718;28;20069;-80
2023/12/10 06:58:35;;;;;;;17.33;2.47;;;8.80;99.90;;;;;;5010438;28;20129;-79
2023/12/10 07:01:04;;;;;;;13.50;3.20;;;8.80;99.90;;;;;;5017542;28;20053;-78
2023/12/10 07:03:31;;;;;;;;;;;8.80;99.90;;;;;;5001820;28;20077;-78
2023/12/10 07:06:03;;;;;;;19.25;2.75;;;8.80;99.90;;;;;;5016547;28;19937;-79
2023/12/10 07:08:31;;;;;;;20.13;3.65;;;8.80;99.90;;;;;;5017119;28;20043;-79
2023/12/10 07:10:57;;;;;;;27.95;4.18;;;8.80;99.90;;;;;;5009784;28;20111;-79
2023/12/10 07:13:24;;;;;;;21.73;3.03;;;8.80;99.90;;;;;;5015379;28;20050;-79
2023/12/10 07:15:51;;;;;;;21.10;2.92;;;8.70;99.90;;;;;;5020628;28;20049;-78
2023/12/10 07:18:18;;;;;;;21.25;3.22;;;8.70;99.90;;;;;;5013806;28;20058;-78
2023/12/10 07:20:45;;;;;;;23.83;4.20;;;8.90;99.90;;;;;;5010477;28;20156;-78
2023/12/10 07:23:11;;;;;;;19.25;4.07;;;8.70;99.90;;;;;;5011702;28;20058;-77
2023/12/10 07:25:38;;;;;;;14.27;2.85;;;8.70;99.90;;;;;;5022356;28;20054;-79
2023/12/10 07:28:05;;;;;;;23.30;3.75;;;8.70;99.90;;;;;;5002532;28;20046;-79
2023/12/10 07:30:31;;;;;;;19.52;3.80;;;8.70;99.90;;;;;;5023910;28;20049;-79
2023/12/10 07:32:58;;;;;;;17.65;3.35;;;8.70;99.90;;;;;;5019232;28;20114;-78
2023/12/10 07:35:25;;;;;;;22.35;4.07;;;8.70;99.90;;;;;;5022705;28;20046;-79
2023/12/10 07:37:52;;;;;;;19.52;3.38;;;8.70;99.90;;;;;;5018728;28;20049;-79
2023/12/10 07:40:19;;;;;;;19.88;3.78;;;8.70;99.90;;;;;;5021916;28;20136;-79
2023/12/10 07:42:46;;;;;;;18.33;4.20;;;8.70;99.90;;;;;;5029150;28;20119;-79
2023/12/10 07:45:13;;;;;;;20.67;3.97;;;8.80;99.90;;;;;;5018305;28;20050;-78
2023/12/10 07:47:40;;;;;;;25.48;3.88;;;8.80;99.90;;;;;;5020850;28;20053;-78
2023/12/10 07:50:07;;;;;;;16.52;3.33;;;8.90;99.90;;;;;;5001239;28;20042;-78
2023/12/10 07:52:34;;;;;;;18.08;3.90;;;8.80;99.90;;;;;;5022005;28;20050;-79
2023/12/10 07:55:01;;;;;;;27.42;4.88;;;8.90;99.90;;;;;;5022938;28;20042;-80
2023/12/10 07:57:28;;;;;;;20.75;4.15;;;8.90;99.90;;;;;;5026012;28;20135;-79
2023/12/10 07:59:55;;;;;;;20.77;3.80;;;8.90;99.90;;;;;;5021324;28;20068;-79
2023/12/10 08:02:22;;;;;;;21.38;4.05;;;8.90;99.90;;;;;;5024081;28;20054;-80
2023/12/10 08:04:49;;;;;;;22.60;5.10;;;9.00;99.90;;;;;;5020639;28;20045;-78
2023/12/10 08:07:15;;;;;;;20.98;3.53;;;9.00;99.90;;;;;;5017785;28;20042;-78
2023/12/10 08:09:42;;;;;;;25.00;4.50;;;9.00;99.90;;;;;;5016194;28;20053;-78
2023/12/10 08:12:09;;;;;;;19.85;3.78;;;9.00;99.90;;;;;;5001860;28;20050;-78
2023/12/10 08:14:36;;;;;;;18.67;4.15;;;9.00;99.90;;;;;;4997412;28;20042;-77
2023/12/10 08:17:03;;;;;;;28.15;4.45;;;9.00;99.90;;;;;;5019350;28;20046;-78
2023/12/10 08:19:29;;;;;;;18.95;3.20;;;9.00;99.90;;;;;;5017937;28;20124;-78
2023/12/10 08:21:56;;;;;;;18.05;3.63;;;9.00;99.90;;;;;;5020534;28;20060;-78
2023/12/10 08:24:25;;;;;;;22.30;3.30;;;9.10;99.90;;;;;;5001532;28;20072;-78
2023/12/10 08:26:53;;;;;;;14.52;3.30;;;9.10;99.90;;;;;;5018811;28;20057;-78
2023/12/10 08:29:20;;;;;;;22.27;3.78;;;9.10;99.90;;;;;;5007408;28;20096;-78
2023/12/10 08:31:46;;;;;;;18.58;3.58;;;9.10;99.90;;;;;;5000335;28;20046;-78
2023/12/10 08:34:13;;;;;;;16.42;3.38;;;9.10;99.90;;;;;;5021235;28;20046;-78
2023/12/10 08:36:40;;;;;;;22.52;3.63;;;9.10;99.90;;;;;;5014829;28;20043;-78
2023/12/10 08:39:08;;;;;;;18.92;3.25;;;9.10;99.90;;;;;;5021876;28;20050;-78
2023/12/10 08:41:35;;;;;;;22.58;3.85;;;9.10;99.90;;;;;;4998345;28;20046;-78
2023/12/10 08:44:02;;;;;;;17.98;4.10;;;9.10;99.90;;;;;;5007010;28;20112;-78
2023/12/10 08:46:28;;;;;;;19.63;3.85;;;9.10;99.90;;;;;;5013350;28;20054;-78
2023/12/10 08:48:55;;;;;;;17.15;3.58;;;9.10;99.90;;;;;;5005341;28;20041;-78
2023/12/10 08:51:22;;;;;;;22.30;3.60;;;9.10;99.90;;;;;;5000522;28;20053;-77
2023/12/10 08:53:49;;;;;;;26.73;4.75;;;9.10;99.90;;;;;;5014982;28;20128;-78
2023/12/10 08:56:16;;;;;;;22.33;4.22;;;9.20;99.90;;;;;;5010836;28;20049;-78
2023/12/10 08:58:42;;;;;;;19.73;3.83;;;9.20;99.90;;;;;;5013429;28;20116;-78
2023/12/10 09:01:09;;;;;;;18.10;4.22;;;9.20;99.90;;;;;;5000913;28;20054;-80
2023/12/10 09:03:36;;;;;;;18.48;3.60;;;9.30;99.90;;;;;;5003083;28;20058;-78
2023/12/10 09:06:04;;;;;;;14.18;3.22;;;9.30;99.90;;;;;;5004960;28;20046;-78
2023/12/10 09:08:30;;;;;;;16.15;3.25;;;9.30;99.90;;;;;;4995355;28;20046;-78
2023/12/10 09:10:57;;;;;;;20.45;3.90;;;9.40;99.90;;;;;;5020296;28;20080;-78
2023/12/10 09:13:24;;;;;;;12.27;3.25;;;9.40;99.90;;;;;;5018940;28;20069;-78
2023/12/10 09:15:53;;;;;;;16.55;3.58;;;9.50;99.90;;;;;;5027596;28;20045;-78
2023/12/10 09:18:20;;;;;;;20.25;2.97;;;9.50;99.90;;;;;;5020472;28;20060;-78
2023/12/10 09:20:48;;;;;;;14.40;3.92;;;9.50;99.90;;;;;;5015105;28;20045;-78
2023/12/10 09:23:15;;;;;;;17.52;3.60;;;9.50;99.90;;;;;;5008689;28;20058;-78
2023/12/10 09:25:41;;;;;;;20.75;3.92;;;9.60;99.90;;;;;;5030841;28;20108;-78
2023/12/10 09:28:08;;;;;;;19.23;3.40;;;9.60;99.90;;;;;;5023993;28;20046;-78
2023/12/10 09:30:35;;;;;;;24.63;4.40;;;9.60;99.90;;;;;;5027725;28;20113;-78
2023/12/10 09:33:02;;;;;;;18.00;3.60;;;9.60;99.90;;;;;;5023244;28;20046;-78
2023/12/10 09:35:29;;;;;;;18.52;3.33;;;9.60;99.90;;;;;;5024918;28;20046;-78
2023/12/10 09:37:55;;;;;;;23.83;4.88;;;9.60;99.90;;;;;;5021162;28;20071;-78
2023/12/10 09:40:23;;;;;;;21.15;3.17;;;9.60;99.90;;;;;;5023370;28;20054;-78
2023/12/10 09:42:49;;;;;;;24.38;3.80;;;9.60;99.90;;;;;;5027101;28;20513;-78
2023/12/10 09:45:16;;;;;;;19.42;3.58;;;9.60;99.90;;;;;;5009688;28;20093;-78
2023/12/10 09:47:44;;;;;;;15.85;2.75;;;9.70;99.90;;;;;;5023964;28;20043;-78
2023/12/10 09:50:12;;;;;;;17.20;3.45;;;9.70;99.90;;;;;;5020246;28;20451;-78
2023/12/10 09:52:38;;;;;;;27.00;3.50;;;9.70;99.90;;;;;;5028706;28;20282;-78
2023/12/10 09:55:05;;;;;;;27.60;4.07;;;9.70;99.90;;;;;;5020111;28;20509;-78
2023/12/10 09:57:32;;;;;;;20.67;3.80;;;9.80;99.90;;;;;;5025828;28;20545;-78
2023/12/10 09:59:59;;;;;;;12.63;3.08;;;9.80;99.90;;;;;;5019748;28;20046;-78
2023/12/10 10:02:36;;;;;;;22.33;3.80;;;9.90;99.90;;;;;;5025146;28;20520;-77
2023/12/10 10:05:07;;;;;;;20.27;3.70;;;9.90;99.90;;;;;;5030538;28;20119;-77
2023/12/10 10:07:35;;;;;;;18.85;3.38;;;10.00;99.90;;;;;;5033567;28;20046;-77
2023/12/10 10:10:01;;;;;;;22.85;3.88;;;10.10;99.90;;;;;;5016483;28;20413;-78
2023/12/10 10:12:33;;;;;;;14.25;3.05;;;10.10;99.90;;;;;;5004506;28;20422;-78
2023/12/10 10:15:00;;;;;;;18.02;3.28;;;10.10;99.90;;;;;;5006115;28;20057;-78
2023/12/10 10:17:31;;;;;;;13.23;3.95;;;10.20;99.90;;;;;;4998986;28;20059;-78
2023/12/10 10:19:59;;;;;;;23.02;4.25;;;10.20;99.90;;;;;;5018398;28;20060;-78
2023/12/10 10:22:27;;;;;;;12.73;3.53;;;10.20;99.90;;;;;;5002750;28;20526;-78
2023/12/10 10:24:54;;;;;;;20.05;3.95;;;10.20;99.90;;;;;;5027339;28;20498;-78
2023/12/10 10:27:22;;;;;;;17.65;4.15;;;10.20;99.90;;;;;;5014510;28;20104;-78
2023/12/10 10:29:53;;;;;;;21.95;4.20;;;10.20;99.90;;;;;;5026110;28;20084;-78
2023/12/10 10:32:21;;;;;;;21.23;4.20;;;10.20;99.90;;;;;;5013871;28;20053;-78
2023/12/10 10:34:49;;;;;;;26.95;4.13;;;10.20;99.90;;;;;;5009264;28;20042;-78
2023/12/10 10:37:17;;;;;;;23.80;4.43;;;10.20;99.90;;;;;;5018648;28;20064;-78
2023/12/10 10:39:46;;;;;;;20.65;4.63;;;10.20;99.90;;;;;;5004121;28;20073;-78
2023/12/10 10:42:13;;;;;;;17.20;3.65;;;10.20;99.90;;;;;;5017627;28;20069;-77
2023/12/10 10:44:41;;;;;;;20.33;3.92;;;10.20;99.90;;;;;;5018556;28;20364;-78
2023/12/10 10:47:08;;;;;;;16.17;3.63;;;10.20;99.90;;;;;;5021687;28;20564;-78
2023/12/10 10:49:40;;;;;;;25.10;4.22;;;10.20;99.90;;;;;;5016813;28;20070;-78
2023/12/10 10:52:11;;;;;;;15.95;3.78;;;10.20;99.90;;;;;;5022344;28;20102;-78
2023/12/10 10:54:39;;;;;;;17.30;3.35;;;10.30;99.90;;;;;;5015312;28;20050;-77
2023/12/10 10:57:06;;;;;;;19.65;3.50;;;10.30;99.90;;;;;;5025714;28;20057;-78
2023/12/10 10:59:34;;;;;;;23.67;4.78;;;10.30;99.90;;;;;;5012395;28;20101;-78
2023/12/10 11:02:11;;;;;;;17.52;3.90;;;10.40;99.90;;;;;;5024636;28;20483;-78
2023/12/10 11:04:39;;;;;;;20.73;3.90;;;10.40;99.90;;;;;;5012642;28;20098;-78
2023/12/10 11:07:06;;;;;;;18.08;3.83;;;10.40;99.90;;;;;;5021323;28;20513;-77
2023/12/10 11:10:00;;;;;;;21.75;3.58;;;10.50;99.90;;;;;;5016422;28;20046;-78
2023/12/10 11:12:47;;;;;;;20.70;3.85;;;10.50;99.90;;;;;;5014120;28;20445;-78
2023/12/10 11:15:13;;;;;;;20.92;3.08;;;10.50;99.90;;;;;;5018698;28;20050;-77
2023/12/10 11:17:57;;;;;;;20.27;3.45;;;10.50;99.90;;;;;;5015086;28;20047;-78
2023/12/10 11:20:44;;;;;;;20.27;3.95;;;10.50;99.90;;;;;;5003600;28;20101;-78
2023/12/10 11:23:15;;;;;;;14.45;2.63;;;10.50;99.90;;;;;;5019171;28;20049;-78
2023/12/10 11:25:42;;;;;;;17.85;3.13;;;10.50;99.90;;;;;;5006943;28;20046;-78
2023/12/10 11:28:14;;;;;;;16.65;4.13;;;10.50;99.90;;;;;;5029790;28;20054;-78
2023/12/10 11:30:43;;;;;;;19.88;3.83;;;10.40;99.90;;;;;;5027326;28;20102;-78
2023/12/10 11:33:13;;;;;;;13.48;3.53;;;10.40;99.90;;;;;;5007764;28;20084;-78
2023/12/10 11:35:41;;;;;;;29.80;4.72;;;10.50;99.90;;;;;;5013868;28;20077;-77
2023/12/10 11:38:09;;;;;;;19.38;4.20;;;10.50;99.90;;;;;;5006499;28;20049;-78
2023/12/10 11:40:35;;;;;;;23.70;4.32;;;10.50;99.90;;;;;;5011761;28;20051;-78
2023/12/10 11:43:04;;;;;;;25.45;3.97;;;10.60;99.90;;;;;;5016890;28;20045;-77
2023/12/10 11:45:32;;;;;;;16.92;3.65;;;10.60;99.90;;;;;;5011223;28;20484;-78
2023/12/10 11:47:59;;;;;;;21.20;4.05;;;10.60;99.90;;;;;;5023004;28;20083;-78
2023/12/10 11:50:26;;;;;;;21.95;3.97;;;10.60;99.90;;;;;;5008062;28;20056;-78
2023/12/10 11:52:52;;;;;;;13.57;2.75;;;10.70;99.90;;;;;;5020793;28;20042;-78
2023/12/10 11:55:20;;;;;;;19.20;2.85;;;10.70;99.90;;;;;;5006235;28;20045;-78
2023/12/10 11:57:47;;;;;;;23.10;4.18;;;10.70;99.90;;;;;;5004643;28;20096;-78
2023/12/10 12:00:14;;;;;;;18.83;3.33;;;10.80;99.90;;;;;;5015324;28;20068;-78
2023/12/10 12:02:46;;;;;;;22.42;3.85;;;10.80;99.90;;;;;;5015743;28;20038;-78
2023/12/10 12:05:15;;;;;;;17.10;3.72;;;10.80;99.90;;;;;;5003612;28;20144;-77
2023/12/10 12:07:44;;;;;;;;;;;10.90;99.90;;;;;;5001666;28;20043;-78
2023/12/10 12:10:12;;;;;;;12.98;4.15;;;10.90;99.90;;;;;;5019945;28;19956;-78
2023/12/10 12:12:46;;;;;;;19.55;3.10;;;11.00;99.90;;;;;;5013660;28;20073;-78
2023/12/10 12:15:14;;;;;;;18.20;3.28;;;11.00;99.90;;;;;;5025137;28;20050;-78
2023/12/10 12:17:42;;;;;;;16.08;3.22;;;11.00;99.90;;;;;;5015401;28;20053;-78
2023/12/10 12:20:17;;;;;;;16.58;3.40;;;11.00;99.90;;;;;;5006848;28;20072;-78
2023/12/10 12:22:46;;;;;;;20.52;3.13;;;11.00;99.90;;;;;;5017918;28;20066;-78
2023/12/10 12:25:15;;;;;;;15.65;2.70;;;11.00;99.90;;;;;;5003887;28;20054;-78
2023/12/10 12:27:43;;;;;;;14.48;2.83;;;11.00;99.90;;;;;;5017039;28;20054;-78
2023/12/10 12:30:10;;;;;;;19.77;2.67;;;11.10;99.90;;;;;;5021505;28;20126;-78
2023/12/10 12:32:37;;;;;;;14.75;2.95;;;11.10;99.90;;;;;;5016652;28;20042;-78
2023/12/10 12:35:05;;;;;;;11.57;3.30;;;11.10;99.90;;;;;;5020245;28;20054;-77
2023/12/10 12:37:32;;;;;;;16.05;3.80;;;11.10;99.90;;;;;;5022532;28;20125;-78
2023/12/10 12:39:59;;;;;;;13.13;2.85;;;11.10;99.90;;;;;;5017380;28;20081;-78
2023/12/10 12:42:30;;;;;;;18.15;3.83;;;11.20;99.90;;;;;;5013468;28;20060;-78
2023/12/10 12:44:57;;;;;;;16.48;3.13;;;11.20;99.90;;;;;;5020122;28;20046;-78
2023/12/10 12:47:24;;;;;;;14.55;2.38;;;11.20;99.90;;;;;;5006795;28;20053;-78